<?xml version="1.0" encoding="UTF-8" standalone="no" ?><gpx xmlns="http://www.topografix.com/GPX/1/1" xmlns:gpxx="http://www.garmin.com/xmlschemas/GpxExtensions/v3" xmlns:gpxtrkx="http://www.garmin.com/xmlschemas/TrackStatsExtension/v1" xmlns:wptx1="http://www.garmin.com/xmlschemas/WaypointExtension/v1" xmlns:gpxtpx="http://www.garmin.com/xmlschemas/TrackPointExtension/v1" creator="Oregon 600" version="1.1" xmlns:xsi="http://www.w3.org/2001/XMLSchema-instance" xsi:schemaLocation="http://www.topografix.com/GPX/1/1 http://www.topografix.com/GPX/1/1/gpx.xsd http://www.garmin.com/xmlschemas/GpxExtensions/v3 http://www8.garmin.com/xmlschemas/GpxExtensionsv3.xsd http://www.garmin.com/xmlschemas/TrackStatsExtension/v1 http://www8.garmin.com/xmlschemas/TrackStatsExtension.xsd http://www.garmin.com/xmlschemas/WaypointExtension/v1 http://www8.garmin.com/xmlschemas/WaypointExtensionv1.xsd http://www.garmin.com/xmlschemas/TrackPointExtension/v1 http://www.garmin.com/xmlschemas/TrackPointExtensionv1.xsd"><metadata><link href="http://www.garmin.com"><text>Garmin International</text></link><time>2017-05-28T16:04:35Z</time></metadata><trk><name>2017-05-28 18:04:11</name><extensions><gpxx:TrackExtension><gpxx:DisplayColor>DarkGreen</gpxx:DisplayColor></gpxx:TrackExtension><gpxtrkx:TrackStatsExtension><gpxtrkx:Distance>15051.000</gpxtrkx:Distance><gpxtrkx:TimerTime>31706</gpxtrkx:TimerTime><gpxtrkx:TotalElapsedTime>31780</gpxtrkx:TotalElapsedTime><gpxtrkx:MovingTime>21273</gpxtrkx:MovingTime><gpxtrkx:StoppedTime>10434</gpxtrkx:StoppedTime><gpxtrkx:MovingSpeed>0.708</gpxtrkx:MovingSpeed><gpxtrkx:MaxSpeed>1.773</gpxtrkx:MaxSpeed><gpxtrkx:MaxElevation>1925.948</gpxtrkx:MaxElevation><gpxtrkx:MinElevation>627.032</gpxtrkx:MinElevation><gpxtrkx:Ascent>1492.000</gpxtrkx:Ascent><gpxtrkx:Descent>1425.775</gpxtrkx:Descent><gpxtrkx:AvgAscentRate>0.068</gpxtrkx:AvgAscentRate><gpxtrkx:MaxAscentRate>3.069</gpxtrkx:MaxAscentRate><gpxtrkx:AvgDescentRate>0.082</gpxtrkx:AvgDescentRate><gpxtrkx:MaxDescentRate>-1.970</gpxtrkx:MaxDescentRate><gpxtrkx:Calories>1533</gpxtrkx:Calories></gpxtrkx:TrackStatsExtension></extensions><trkseg><trkpt lat="47.5900017098" lon="11.1930245999"><ele>708.97</ele><time>2017-05-28T07:14:55Z</time></trkpt><trkpt lat="47.5897078402" lon="11.1932031345"><ele>683.01</ele><time>2017-05-28T07:15:31Z</time></trkpt><trkpt lat="47.5894427206" lon="11.1933727004"><ele>684.45</ele><time>2017-05-28T07:16:00Z</time></trkpt><trkpt lat="47.5891185924" lon="11.1934828386"><ele>686.27</ele><time>2017-05-28T07:16:30Z</time></trkpt><trkpt lat="47.5887914468" lon="11.1935855169"><ele>687.78</ele><time>2017-05-28T07:16:59Z</time></trkpt><trkpt lat="47.5884756166" lon="11.1936698388"><ele>689.91</ele><time>2017-05-28T07:17:27Z</time></trkpt><trkpt lat="47.5881642289" lon="11.1937200464"><ele>692.13</ele><time>2017-05-28T07:17:53Z</time></trkpt><trkpt lat="47.5878805015" lon="11.1937758699"><ele>694.15</ele><time>2017-05-28T07:18:24Z</time></trkpt><trkpt lat="47.5877218321" lon="11.1940453481"><ele>696.48</ele><time>2017-05-28T07:18:59Z</time></trkpt><trkpt lat="47.5878999475" lon="11.1941502895"><ele>697.70</ele><time>2017-05-28T07:19:59Z</time></trkpt><trkpt lat="47.5881892908" lon="11.1944097094"><ele>701.30</ele><time>2017-05-28T07:20:35Z</time></trkpt><trkpt lat="47.5884653069" lon="11.1943926103"><ele>704.17</ele><time>2017-05-28T07:21:03Z</time></trkpt><trkpt lat="47.5887838192" lon="11.1943496950"><ele>707.52</ele><time>2017-05-28T07:21:33Z</time></trkpt><trkpt lat="47.5889937021" lon="11.1946668662"><ele>711.37</ele><time>2017-05-28T07:22:02Z</time></trkpt><trkpt lat="47.5892014895" lon="11.1950995401"><ele>713.77</ele><time>2017-05-28T07:22:29Z</time></trkpt><trkpt lat="47.5893682893" lon="11.1954527535"><ele>716.46</ele><time>2017-05-28T07:22:55Z</time></trkpt><trkpt lat="47.5895354245" lon="11.1958389916"><ele>718.66</ele><time>2017-05-28T07:23:19Z</time></trkpt><trkpt lat="47.5897142943" lon="11.1961706635"><ele>720.22</ele><time>2017-05-28T07:23:45Z</time></trkpt><trkpt lat="47.5898136199" lon="11.1966533773"><ele>721.57</ele><time>2017-05-28T07:24:15Z</time></trkpt><trkpt lat="47.5897587184" lon="11.1970942654"><ele>725.74</ele><time>2017-05-28T07:24:49Z</time></trkpt><trkpt lat="47.5894991308" lon="11.1973716225"><ele>731.60</ele><time>2017-05-28T07:25:31Z</time></trkpt><trkpt lat="47.5891600829" lon="11.1976763047"><ele>734.56</ele><time>2017-05-28T07:26:03Z</time></trkpt><trkpt lat="47.5888824742" lon="11.1978162825"><ele>736.65</ele><time>2017-05-28T07:26:33Z</time></trkpt><trkpt lat="47.5886425842" lon="11.1983091384"><ele>740.17</ele><time>2017-05-28T07:27:04Z</time></trkpt><trkpt lat="47.5884360541" lon="11.1988134775"><ele>744.14</ele><time>2017-05-28T07:27:33Z</time></trkpt><trkpt lat="47.5882355589" lon="11.1991601530"><ele>748.39</ele><time>2017-05-28T07:28:06Z</time></trkpt><trkpt lat="47.5879484788" lon="11.1990951095"><ele>752.40</ele><time>2017-05-28T07:28:37Z</time></trkpt><trkpt lat="47.5877008773" lon="11.1988131423"><ele>755.39</ele><time>2017-05-28T07:29:07Z</time></trkpt><trkpt lat="47.5875049084" lon="11.1984746810"><ele>758.18</ele><time>2017-05-28T07:29:35Z</time></trkpt><trkpt lat="47.5873170700" lon="11.1981517263"><ele>760.29</ele><time>2017-05-28T07:30:02Z</time></trkpt><trkpt lat="47.5871333387" lon="11.1976991873"><ele>762.70</ele><time>2017-05-28T07:30:35Z</time></trkpt><trkpt lat="47.5868487731" lon="11.1975711118"><ele>765.93</ele><time>2017-05-28T07:31:08Z</time></trkpt><trkpt lat="47.5866134092" lon="11.1979938112"><ele>768.82</ele><time>2017-05-28T07:31:41Z</time></trkpt><trkpt lat="47.5867068674" lon="11.1985262297"><ele>772.04</ele><time>2017-05-28T07:32:12Z</time></trkpt><trkpt lat="47.5866638683" lon="11.1989673693"><ele>776.19</ele><time>2017-05-28T07:32:42Z</time></trkpt><trkpt lat="47.5866827276" lon="11.1994488258"><ele>780.40</ele><time>2017-05-28T07:33:14Z</time></trkpt><trkpt lat="47.5866346993" lon="11.1999079864"><ele>785.59</ele><time>2017-05-28T07:33:52Z</time></trkpt><trkpt lat="47.5866620243" lon="11.2002939731"><ele>789.39</ele><time>2017-05-28T07:35:05Z</time></trkpt><trkpt lat="47.5863851700" lon="11.2005981524"><ele>797.77</ele><time>2017-05-28T07:36:02Z</time></trkpt><trkpt lat="47.5863093976" lon="11.2012246996"><ele>804.90</ele><time>2017-05-28T07:36:46Z</time></trkpt><trkpt lat="47.5862058811" lon="11.2016780768"><ele>814.90</ele><time>2017-05-28T07:37:44Z</time></trkpt><trkpt lat="47.5860312022" lon="11.2021741178"><ele>824.46</ele><time>2017-05-28T07:38:40Z</time></trkpt><trkpt lat="47.5858193915" lon="11.2025152612"><ele>833.47</ele><time>2017-05-28T07:39:35Z</time></trkpt><trkpt lat="47.5855722930" lon="11.2027260661"><ele>841.56</ele><time>2017-05-28T07:40:29Z</time></trkpt><trkpt lat="47.5852863025" lon="11.2030720711"><ele>848.16</ele><time>2017-05-28T07:41:21Z</time></trkpt><trkpt lat="47.5851682853" lon="11.2035614066"><ele>852.74</ele><time>2017-05-28T07:42:03Z</time></trkpt><trkpt lat="47.5850379467" lon="11.2041444518"><ele>860.55</ele><time>2017-05-28T07:42:54Z</time></trkpt><trkpt lat="47.5847790297" lon="11.2044830807"><ele>868.08</ele><time>2017-05-28T07:43:43Z</time></trkpt><trkpt lat="47.5845583342" lon="11.2048768625"><ele>872.74</ele><time>2017-05-28T07:44:24Z</time></trkpt><trkpt lat="47.5844812207" lon="11.2052900903"><ele>879.50</ele><time>2017-05-28T07:45:09Z</time></trkpt><trkpt lat="47.5844318513" lon="11.2057992071"><ele>885.55</ele><time>2017-05-28T07:45:51Z</time></trkpt><trkpt lat="47.5843551569" lon="11.2062403467"><ele>894.47</ele><time>2017-05-28T07:46:42Z</time></trkpt><trkpt lat="47.5840814039" lon="11.2067362200"><ele>896.98</ele><time>2017-05-28T07:47:22Z</time></trkpt><trkpt lat="47.5839217287" lon="11.2071191054"><ele>905.06</ele><time>2017-05-28T07:48:13Z</time></trkpt><trkpt lat="47.5838174578" lon="11.2076378614"><ele>910.36</ele><time>2017-05-28T07:49:01Z</time></trkpt><trkpt lat="47.5835872069" lon="11.2081073318"><ele>917.78</ele><time>2017-05-28T07:49:54Z</time></trkpt><trkpt lat="47.5833649188" lon="11.2085567694"><ele>922.85</ele><time>2017-05-28T07:50:41Z</time></trkpt><trkpt lat="47.5834890548" lon="11.2089650519"><ele>922.38</ele><time>2017-05-28T07:52:50Z</time></trkpt><trkpt lat="47.5834510010" lon="11.2089175265"><ele>922.58</ele><time>2017-05-28T07:57:06Z</time></trkpt><trkpt lat="47.5833252724" lon="11.2086190470"><ele>926.36</ele><time>2017-05-28T07:57:47Z</time></trkpt><trkpt lat="47.5830912497" lon="11.2085018679"><ele>939.22</ele><time>2017-05-28T07:58:56Z</time></trkpt><trkpt lat="47.5829249527" lon="11.2086142693"><ele>951.57</ele><time>2017-05-28T08:00:19Z</time></trkpt><trkpt lat="47.5827108789" lon="11.2087399978"><ele>965.78</ele><time>2017-05-28T08:01:45Z</time></trkpt><trkpt lat="47.5825246330" lon="11.2090088055"><ele>976.32</ele><time>2017-05-28T08:02:46Z</time></trkpt><trkpt lat="47.5824657083" lon="11.2093955465"><ele>986.52</ele><time>2017-05-28T08:03:51Z</time></trkpt><trkpt lat="47.5823439192" lon="11.2097053416"><ele>999.89</ele><time>2017-05-28T08:04:58Z</time></trkpt><trkpt lat="47.5822050311" lon="11.2100607343"><ele>1012.77</ele><time>2017-05-28T08:06:17Z</time></trkpt><trkpt lat="47.5820973236" lon="11.2102288753"><ele>1022.74</ele><time>2017-05-28T08:07:21Z</time></trkpt><trkpt lat="47.5818463694" lon="11.2103226688"><ele>1033.47</ele><time>2017-05-28T08:08:35Z</time></trkpt><trkpt lat="47.5816011149" lon="11.2106063962"><ele>1043.07</ele><time>2017-05-28T08:09:39Z</time></trkpt><trkpt lat="47.5813309662" lon="11.2108829152"><ele>1053.92</ele><time>2017-05-28T08:10:48Z</time></trkpt><trkpt lat="47.5811369251" lon="11.2112453487"><ele>1065.30</ele><time>2017-05-28T08:11:54Z</time></trkpt><trkpt lat="47.5809590612" lon="11.2113226298"><ele>1077.03</ele><time>2017-05-28T08:13:13Z</time></trkpt><trkpt lat="47.5806817878" lon="11.2114602607"><ele>1089.76</ele><time>2017-05-28T08:14:28Z</time></trkpt><trkpt lat="47.5804497767" lon="11.2116186786"><ele>1100.53</ele><time>2017-05-28T08:15:38Z</time></trkpt><trkpt lat="47.5801896863" lon="11.2116495240"><ele>1110.93</ele><time>2017-05-28T08:16:47Z</time></trkpt><trkpt lat="47.5798600260" lon="11.2118021585"><ele>1116.93</ele><time>2017-05-28T08:17:50Z</time></trkpt><trkpt lat="47.5796397496" lon="11.2118848041"><ele>1122.61</ele><time>2017-05-28T08:21:47Z</time></trkpt><trkpt lat="47.5793683436" lon="11.2120468263"><ele>1134.55</ele><time>2017-05-28T08:22:46Z</time></trkpt><trkpt lat="47.5791167188" lon="11.2122824416"><ele>1141.16</ele><time>2017-05-28T08:23:39Z</time></trkpt><trkpt lat="47.5789455604" lon="11.2126194779"><ele>1138.97</ele><time>2017-05-28T08:24:34Z</time></trkpt><trkpt lat="47.5788844563" lon="11.2131177820"><ele>1147.30</ele><time>2017-05-28T08:25:50Z</time></trkpt><trkpt lat="47.5787012279" lon="11.2134999968"><ele>1157.39</ele><time>2017-05-28T08:26:56Z</time></trkpt><trkpt lat="47.5787110347" lon="11.2139025796"><ele>1168.38</ele><time>2017-05-28T08:28:15Z</time></trkpt><trkpt lat="47.5785679556" lon="11.2141394522"><ele>1178.75</ele><time>2017-05-28T08:29:30Z</time></trkpt><trkpt lat="47.5784794427" lon="11.2145670131"><ele>1187.41</ele><time>2017-05-28T08:30:41Z</time></trkpt><trkpt lat="47.5783103798" lon="11.2149886228"><ele>1192.22</ele><time>2017-05-28T08:31:27Z</time></trkpt><trkpt lat="47.5781434122" lon="11.2153733522"><ele>1190.44</ele><time>2017-05-28T08:32:00Z</time></trkpt><trkpt lat="47.5779166818" lon="11.2157013360"><ele>1193.94</ele><time>2017-05-28T08:32:41Z</time></trkpt><trkpt lat="47.5778574217" lon="11.2161912583"><ele>1197.84</ele><time>2017-05-28T08:33:27Z</time></trkpt><trkpt lat="47.5778065436" lon="11.2166367564"><ele>1203.66</ele><time>2017-05-28T08:34:16Z</time></trkpt><trkpt lat="47.5776832458" lon="11.2171136029"><ele>1211.17</ele><time>2017-05-28T08:35:10Z</time></trkpt><trkpt lat="47.5776047911" lon="11.2176107336"><ele>1213.64</ele><time>2017-05-28T08:36:02Z</time></trkpt><trkpt lat="47.5775120035" lon="11.2181170844"><ele>1213.21</ele><time>2017-05-28T08:36:45Z</time></trkpt><trkpt lat="47.5775525719" lon="11.2186725531"><ele>1206.37</ele><time>2017-05-28T08:37:28Z</time></trkpt><trkpt lat="47.5773692597" lon="11.2189447135"><ele>1206.07</ele><time>2017-05-28T08:38:01Z</time></trkpt><trkpt lat="47.5771522522" lon="11.2192399241"><ele>1209.91</ele><time>2017-05-28T08:38:41Z</time></trkpt><trkpt lat="47.5768767390" lon="11.2195684109"><ele>1212.09</ele><time>2017-05-28T08:39:22Z</time></trkpt><trkpt lat="47.5765745714" lon="11.2200227100"><ele>1218.46</ele><time>2017-05-28T08:40:11Z</time></trkpt><trkpt lat="47.5763484277" lon="11.2202813756"><ele>1223.78</ele><time>2017-05-28T08:40:56Z</time></trkpt><trkpt lat="47.5760893431" lon="11.2205586489"><ele>1226.18</ele><time>2017-05-28T08:41:38Z</time></trkpt><trkpt lat="47.5758107286" lon="11.2207873072"><ele>1228.99</ele><time>2017-05-28T08:42:18Z</time></trkpt><trkpt lat="47.5758321024" lon="11.2204844691"><ele>1236.91</ele><time>2017-05-28T08:43:09Z</time></trkpt><trkpt lat="47.5759612676" lon="11.2199911103"><ele>1242.66</ele><time>2017-05-28T08:43:55Z</time></trkpt><trkpt lat="47.5759663805" lon="11.2196280062"><ele>1245.07</ele><time>2017-05-28T08:45:05Z</time></trkpt><trkpt lat="47.5761066098" lon="11.2194379047"><ele>1247.55</ele><time>2017-05-28T08:46:43Z</time></trkpt><trkpt lat="47.5763079431" lon="11.2190300412"><ele>1250.90</ele><time>2017-05-28T08:47:21Z</time></trkpt><trkpt lat="47.5764801074" lon="11.2186223455"><ele>1255.07</ele><time>2017-05-28T08:48:00Z</time></trkpt><trkpt lat="47.5764479209" lon="11.2181625981"><ele>1263.51</ele><time>2017-05-28T08:48:50Z</time></trkpt><trkpt lat="47.5764046703" lon="11.2177959736"><ele>1268.01</ele><time>2017-05-28T08:50:01Z</time></trkpt><trkpt lat="47.5763780158" lon="11.2181591615"><ele>1264.20</ele><time>2017-05-28T08:50:52Z</time></trkpt><trkpt lat="47.5761809573" lon="11.2179032620"><ele>1277.67</ele><time>2017-05-28T08:52:01Z</time></trkpt><trkpt lat="47.5763299875" lon="11.2175928801"><ele>1279.20</ele><time>2017-05-28T08:52:54Z</time></trkpt><trkpt lat="47.5762023311" lon="11.2171757128"><ele>1291.25</ele><time>2017-05-28T08:53:49Z</time></trkpt><trkpt lat="47.5760709029" lon="11.2169371638"><ele>1301.37</ele><time>2017-05-28T08:56:34Z</time></trkpt><trkpt lat="47.5759739242" lon="11.2167466432"><ele>1307.09</ele><time>2017-05-28T08:58:36Z</time></trkpt><trkpt lat="47.5759115629" lon="11.2164490018"><ele>1320.62</ele><time>2017-05-28T08:59:46Z</time></trkpt><trkpt lat="47.5759539753" lon="11.2161146477"><ele>1332.12</ele><time>2017-05-28T09:01:02Z</time></trkpt><trkpt lat="47.5759103056" lon="11.2157715764"><ele>1334.35</ele><time>2017-05-28T09:02:06Z</time></trkpt><trkpt lat="47.5758626964" lon="11.2155158445"><ele>1339.45</ele><time>2017-05-28T09:03:06Z</time></trkpt><trkpt lat="47.5757088885" lon="11.2158287410"><ele>1345.07</ele><time>2017-05-28T09:04:07Z</time></trkpt><trkpt lat="47.5755267497" lon="11.2160311639"><ele>1353.60</ele><time>2017-05-28T09:05:11Z</time></trkpt><trkpt lat="47.5753140170" lon="11.2159877457"><ele>1365.76</ele><time>2017-05-28T09:06:25Z</time></trkpt><trkpt lat="47.5751469657" lon="11.2156794593"><ele>1375.19</ele><time>2017-05-28T09:07:25Z</time></trkpt><trkpt lat="47.5751554314" lon="11.2155700754"><ele>1381.87</ele><time>2017-05-28T09:09:17Z</time></trkpt><trkpt lat="47.5750304572" lon="11.2154015992"><ele>1390.94</ele><time>2017-05-28T09:12:28Z</time></trkpt><trkpt lat="47.5748493243" lon="11.2153045367"><ele>1405.55</ele><time>2017-05-28T09:13:44Z</time></trkpt><trkpt lat="47.5749014597" lon="11.2153418362"><ele>1407.99</ele><time>2017-05-28T09:23:51Z</time></trkpt><trkpt lat="47.5748764817" lon="11.2153058778"><ele>1408.35</ele><time>2017-05-28T09:25:51Z</time></trkpt><trkpt lat="47.5748970173" lon="11.2153185345"><ele>1409.90</ele><time>2017-05-28T09:32:02Z</time></trkpt><trkpt lat="47.5749369152" lon="11.2149501499"><ele>1411.92</ele><time>2017-05-28T09:32:59Z</time></trkpt><trkpt lat="47.5749787409" lon="11.2145146262"><ele>1414.35</ele><time>2017-05-28T09:33:51Z</time></trkpt><trkpt lat="47.5750437006" lon="11.2141771708"><ele>1415.53</ele><time>2017-05-28T09:34:21Z</time></trkpt><trkpt lat="47.5751685910" lon="11.2138144858"><ele>1421.13</ele><time>2017-05-28T09:36:58Z</time></trkpt><trkpt lat="47.5751938205" lon="11.2133960612"><ele>1420.96</ele><time>2017-05-28T09:37:33Z</time></trkpt><trkpt lat="47.5752427708" lon="11.2129522394"><ele>1422.90</ele><time>2017-05-28T09:38:07Z</time></trkpt><trkpt lat="47.5753009412" lon="11.2125012092"><ele>1428.46</ele><time>2017-05-28T09:38:42Z</time></trkpt><trkpt lat="47.5750878733" lon="11.2127906363"><ele>1430.97</ele><time>2017-05-28T09:40:07Z</time></trkpt><trkpt lat="47.5748783257" lon="11.2130693346"><ele>1441.13</ele><time>2017-05-28T09:40:59Z</time></trkpt><trkpt lat="47.5747253560" lon="11.2133290898"><ele>1451.59</ele><time>2017-05-28T09:41:57Z</time></trkpt><trkpt lat="47.5745319016" lon="11.2133348733"><ele>1465.05</ele><time>2017-05-28T09:43:02Z</time></trkpt><trkpt lat="47.5743019860" lon="11.2131669838"><ele>1473.88</ele><time>2017-05-28T09:44:14Z</time></trkpt><trkpt lat="47.5741912611" lon="11.2133957259"><ele>1487.20</ele><time>2017-05-28T09:45:27Z</time></trkpt><trkpt lat="47.5741695520" lon="11.2135507073"><ele>1500.22</ele><time>2017-05-28T09:46:43Z</time></trkpt><trkpt lat="47.5740002375" lon="11.2136695627"><ele>1512.63</ele><time>2017-05-28T09:47:57Z</time></trkpt><trkpt lat="47.5737717468" lon="11.2138876598"><ele>1520.21</ele><time>2017-05-28T09:49:00Z</time></trkpt><trkpt lat="47.5736093894" lon="11.2141214311"><ele>1531.03</ele><time>2017-05-28T09:50:34Z</time></trkpt><trkpt lat="47.5734403264" lon="11.2143894006"><ele>1543.66</ele><time>2017-05-28T09:51:27Z</time></trkpt><trkpt lat="47.5732468721" lon="11.2143743970"><ele>1556.07</ele><time>2017-05-28T09:52:31Z</time></trkpt><trkpt lat="47.5731374044" lon="11.2146225013"><ele>1565.35</ele><time>2017-05-28T09:53:25Z</time></trkpt><trkpt lat="47.5729268510" lon="11.2145727128"><ele>1579.34</ele><time>2017-05-28T09:54:36Z</time></trkpt><trkpt lat="47.5726756454" lon="11.2146115210"><ele>1592.11</ele><time>2017-05-28T09:55:37Z</time></trkpt><trkpt lat="47.5725542754" lon="11.2143758219"><ele>1603.83</ele><time>2017-05-28T09:56:40Z</time></trkpt><trkpt lat="47.5723577198" lon="11.2146013789"><ele>1612.66</ele><time>2017-05-28T10:00:09Z</time></trkpt><trkpt lat="47.5721273851" lon="11.2147264369"><ele>1623.83</ele><time>2017-05-28T10:01:06Z</time></trkpt><trkpt lat="47.5719716493" lon="11.2146280333"><ele>1635.19</ele><time>2017-05-28T10:03:21Z</time></trkpt><trkpt lat="47.5718864053" lon="11.2142640911"><ele>1636.31</ele><time>2017-05-28T10:05:09Z</time></trkpt><trkpt lat="47.5718471780" lon="11.2139212713"><ele>1641.22</ele><time>2017-05-28T10:05:47Z</time></trkpt><trkpt lat="47.5717638619" lon="11.2135974783"><ele>1645.71</ele><time>2017-05-28T10:06:45Z</time></trkpt><trkpt lat="47.5717663765" lon="11.2135053612"><ele>1651.48</ele><time>2017-05-28T10:23:25Z</time></trkpt><trkpt lat="47.5717056077" lon="11.2135538086"><ele>1649.64</ele><time>2017-05-28T10:36:29Z</time></trkpt><trkpt lat="47.5714544859" lon="11.2133696582"><ele>1646.16</ele><time>2017-05-28T10:37:19Z</time></trkpt><trkpt lat="47.5712131709" lon="11.2131557520"><ele>1648.26</ele><time>2017-05-28T10:37:58Z</time></trkpt><trkpt lat="47.5709130988" lon="11.2131456938"><ele>1640.83</ele><time>2017-05-28T10:39:00Z</time></trkpt><trkpt lat="47.5707012881" lon="11.2128913868"><ele>1637.22</ele><time>2017-05-28T10:39:26Z</time></trkpt><trkpt lat="47.5705038104" lon="11.2126357388"><ele>1630.02</ele><time>2017-05-28T10:39:58Z</time></trkpt><trkpt lat="47.5703088474" lon="11.2123462278"><ele>1635.84</ele><time>2017-05-28T10:40:57Z</time></trkpt><trkpt lat="47.5700557977" lon="11.2121565454"><ele>1640.15</ele><time>2017-05-28T10:41:40Z</time></trkpt><trkpt lat="47.5698283128" lon="11.2120108679"><ele>1647.44</ele><time>2017-05-28T10:42:36Z</time></trkpt><trkpt lat="47.5695852377" lon="11.2117045093"><ele>1648.70</ele><time>2017-05-28T10:43:21Z</time></trkpt><trkpt lat="47.5693611894" lon="11.2113772798"><ele>1652.39</ele><time>2017-05-28T10:44:07Z</time></trkpt><trkpt lat="47.5690809824" lon="11.2112297583"><ele>1649.33</ele><time>2017-05-28T10:44:56Z</time></trkpt><trkpt lat="47.5688489713" lon="11.2110061292"><ele>1647.50</ele><time>2017-05-28T10:45:32Z</time></trkpt><trkpt lat="47.5686841831" lon="11.2106768042"><ele>1651.23</ele><time>2017-05-28T10:46:20Z</time></trkpt><trkpt lat="47.5684970990" lon="11.2103196513"><ele>1655.91</ele><time>2017-05-28T10:47:10Z</time></trkpt><trkpt lat="47.5682675187" lon="11.2101784162"><ele>1652.61</ele><time>2017-05-28T10:47:49Z</time></trkpt><trkpt lat="47.5681240205" lon="11.2098675314"><ele>1654.84</ele><time>2017-05-28T10:48:37Z</time></trkpt><trkpt lat="47.5678614993" lon="11.2095900066"><ele>1654.61</ele><time>2017-05-28T10:49:19Z</time></trkpt><trkpt lat="47.5676249620" lon="11.2094304152"><ele>1652.83</ele><time>2017-05-28T10:50:01Z</time></trkpt><trkpt lat="47.5674170069" lon="11.2092505395"><ele>1647.51</ele><time>2017-05-28T10:52:46Z</time></trkpt><trkpt lat="47.5671826489" lon="11.2090142537"><ele>1646.83</ele><time>2017-05-28T10:54:00Z</time></trkpt><trkpt lat="47.5670298468" lon="11.2086857669"><ele>1649.29</ele><time>2017-05-28T10:54:42Z</time></trkpt><trkpt lat="47.5668351352" lon="11.2084097508"><ele>1653.65</ele><time>2017-05-28T10:55:26Z</time></trkpt><trkpt lat="47.5666049682" lon="11.2083404325"><ele>1643.62</ele><time>2017-05-28T10:56:54Z</time></trkpt><trkpt lat="47.5664274395" lon="11.2085091602"><ele>1632.03</ele><time>2017-05-28T10:59:40Z</time></trkpt><trkpt lat="47.5662233401" lon="11.2087011896"><ele>1619.61</ele><time>2017-05-28T11:00:35Z</time></trkpt><trkpt lat="47.5659552868" lon="11.2087555882"><ele>1609.44</ele><time>2017-05-28T11:01:31Z</time></trkpt><trkpt lat="47.5659167301" lon="11.2087299395"><ele>1611.20</ele><time>2017-05-28T11:02:46Z</time></trkpt><trkpt lat="47.5657637604" lon="11.2087613717"><ele>1610.28</ele><time>2017-05-28T11:04:12Z</time></trkpt><trkpt lat="47.5654796977" lon="11.2088957336"><ele>1609.05</ele><time>2017-05-28T11:04:53Z</time></trkpt><trkpt lat="47.5652709045" lon="11.2090348732"><ele>1603.50</ele><time>2017-05-28T11:06:00Z</time></trkpt><trkpt lat="47.5651274063" lon="11.2090552412"><ele>1605.33</ele><time>2017-05-28T11:08:31Z</time></trkpt><trkpt lat="47.5648655556" lon="11.2089395709"><ele>1614.61</ele><time>2017-05-28T11:09:29Z</time></trkpt><trkpt lat="47.5646291021" lon="11.2090947200"><ele>1623.71</ele><time>2017-05-28T11:10:46Z</time></trkpt><trkpt lat="47.5644705165" lon="11.2091419939"><ele>1634.55</ele><time>2017-05-28T11:12:19Z</time></trkpt><trkpt lat="47.5643234979" lon="11.2092579156"><ele>1639.97</ele><time>2017-05-28T11:16:48Z</time></trkpt><trkpt lat="47.5642031338" lon="11.2092398945"><ele>1650.31</ele><time>2017-05-28T11:19:06Z</time></trkpt><trkpt lat="47.5640583783" lon="11.2091403175"><ele>1662.48</ele><time>2017-05-28T11:20:20Z</time></trkpt><trkpt lat="47.5639130361" lon="11.2091058679"><ele>1672.70</ele><time>2017-05-28T11:21:47Z</time></trkpt><trkpt lat="47.5637367647" lon="11.2089872640"><ele>1684.79</ele><time>2017-05-28T11:23:14Z</time></trkpt><trkpt lat="47.5636655185" lon="11.2089884374"><ele>1692.55</ele><time>2017-05-28T11:25:14Z</time></trkpt><trkpt lat="47.5635511894" lon="11.2088735215"><ele>1701.20</ele><time>2017-05-28T11:26:36Z</time></trkpt><trkpt lat="47.5633654464" lon="11.2089647166"><ele>1708.68</ele><time>2017-05-28T11:28:49Z</time></trkpt><trkpt lat="47.5632678811" lon="11.2089834083"><ele>1714.58</ele><time>2017-05-28T11:30:40Z</time></trkpt><trkpt lat="47.5630886760" lon="11.2091046944"><ele>1719.99</ele><time>2017-05-28T11:31:33Z</time></trkpt><trkpt lat="47.5629590079" lon="11.2093885057"><ele>1730.91</ele><time>2017-05-28T11:33:02Z</time></trkpt><trkpt lat="47.5630807970" lon="11.2096898351"><ele>1728.64</ele><time>2017-05-28T11:35:27Z</time></trkpt><trkpt lat="47.5631126482" lon="11.2100510951"><ele>1726.36</ele><time>2017-05-28T11:37:12Z</time></trkpt><trkpt lat="47.5632197689" lon="11.2103825994"><ele>1728.47</ele><time>2017-05-28T11:38:12Z</time></trkpt><trkpt lat="47.5631876662" lon="11.2104149535"><ele>1734.61</ele><time>2017-05-28T11:41:13Z</time></trkpt><trkpt lat="47.5629234686" lon="11.2103687692"><ele>1730.07</ele><time>2017-05-28T11:44:21Z</time></trkpt><trkpt lat="47.5626593549" lon="11.2102841120"><ele>1728.07</ele><time>2017-05-28T11:45:19Z</time></trkpt><trkpt lat="47.5624218956" lon="11.2102377601"><ele>1725.52</ele><time>2017-05-28T11:46:12Z</time></trkpt><trkpt lat="47.5621777307" lon="11.2102821004"><ele>1725.40</ele><time>2017-05-28T11:47:49Z</time></trkpt><trkpt lat="47.5619530119" lon="11.2102478184"><ele>1732.28</ele><time>2017-05-28T11:49:00Z</time></trkpt><trkpt lat="47.5616843719" lon="11.2102796696"><ele>1739.98</ele><time>2017-05-28T11:49:43Z</time></trkpt><trkpt lat="47.5614664424" lon="11.2102877162"><ele>1749.77</ele><time>2017-05-28T11:50:39Z</time></trkpt><trkpt lat="47.5612292346" lon="11.2102675997"><ele>1759.38</ele><time>2017-05-28T11:52:58Z</time></trkpt><trkpt lat="47.5609887578" lon="11.2103644107"><ele>1767.38</ele><time>2017-05-28T11:53:50Z</time></trkpt><trkpt lat="47.5607412402" lon="11.2104307953"><ele>1777.13</ele><time>2017-05-28T11:55:45Z</time></trkpt><trkpt lat="47.5605976582" lon="11.2106346432"><ele>1786.82</ele><time>2017-05-28T11:56:49Z</time></trkpt><trkpt lat="47.5604416709" lon="11.2108196318"><ele>1796.62</ele><time>2017-05-28T11:59:17Z</time></trkpt><trkpt lat="47.5602638908" lon="11.2106721103"><ele>1809.09</ele><time>2017-05-28T12:01:46Z</time></trkpt><trkpt lat="47.5601285230" lon="11.2107183784"><ele>1815.50</ele><time>2017-05-28T12:02:54Z</time></trkpt><trkpt lat="47.5600406807" lon="11.2103686854"><ele>1819.01</ele><time>2017-05-28T12:05:44Z</time></trkpt><trkpt lat="47.5600160379" lon="11.2099625822"><ele>1823.22</ele><time>2017-05-28T12:06:20Z</time></trkpt><trkpt lat="47.5600031298" lon="11.2095640227"><ele>1826.48</ele><time>2017-05-28T12:06:53Z</time></trkpt><trkpt lat="47.5599249266" lon="11.2091789581"><ele>1825.27</ele><time>2017-05-28T12:07:19Z</time></trkpt><trkpt lat="47.5600872003" lon="11.2089199573"><ele>1830.84</ele><time>2017-05-28T12:08:53Z</time></trkpt><trkpt lat="47.5602272619" lon="11.2085778918"><ele>1840.61</ele><time>2017-05-28T12:09:47Z</time></trkpt><trkpt lat="47.5603811536" lon="11.2082954217"><ele>1851.27</ele><time>2017-05-28T12:11:20Z</time></trkpt><trkpt lat="47.5605214667" lon="11.2081492413"><ele>1864.42</ele><time>2017-05-28T12:12:46Z</time></trkpt><trkpt lat="47.5606591813" lon="11.2081117742"><ele>1877.86</ele><time>2017-05-28T12:13:57Z</time></trkpt><trkpt lat="47.5608218741" lon="11.2082145363"><ele>1892.38</ele><time>2017-05-28T12:20:11Z</time></trkpt><trkpt lat="47.5609693956" lon="11.2079910748"><ele>1909.59</ele><time>2017-05-28T12:22:05Z</time></trkpt><trkpt lat="47.5610290747" lon="11.2078985386"><ele>1918.39</ele><time>2017-05-28T12:26:05Z</time></trkpt><trkpt lat="47.5610447489" lon="11.2078935094"><ele>1920.04</ele><time>2017-05-28T12:33:15Z</time></trkpt><trkpt lat="47.5610461738" lon="11.2079229299"><ele>1923.95</ele><time>2017-05-28T12:49:05Z</time></trkpt><trkpt lat="47.5610394683" lon="11.2079950143"><ele>1924.27</ele><time>2017-05-28T12:55:09Z</time></trkpt><trkpt lat="47.5610496104" lon="11.2079572119"><ele>1924.69</ele><time>2017-05-28T12:59:53Z</time></trkpt><trkpt lat="47.5609745085" lon="11.2078990415"><ele>1923.43</ele><time>2017-05-28T13:07:35Z</time></trkpt><trkpt lat="47.5608555693" lon="11.2075687107"><ele>1914.96</ele><time>2017-05-28T13:08:35Z</time></trkpt><trkpt lat="47.5606690720" lon="11.2072356977"><ele>1906.83</ele><time>2017-05-28T13:09:21Z</time></trkpt><trkpt lat="47.5604902860" lon="11.2069420796"><ele>1894.72</ele><time>2017-05-28T13:10:10Z</time></trkpt><trkpt lat="47.5602732785" lon="11.2066821568"><ele>1885.36</ele><time>2017-05-28T13:10:55Z</time></trkpt><trkpt lat="47.5600628927" lon="11.2065875251"><ele>1874.20</ele><time>2017-05-28T13:12:29Z</time></trkpt><trkpt lat="47.5599370804" lon="11.2066417560"><ele>1863.87</ele><time>2017-05-28T13:14:22Z</time></trkpt><trkpt lat="47.5596988667" lon="11.2064688373"><ele>1854.16</ele><time>2017-05-28T13:15:19Z</time></trkpt><trkpt lat="47.5595109444" lon="11.2063808274"><ele>1847.26</ele><time>2017-05-28T13:16:02Z</time></trkpt><trkpt lat="47.5594169833" lon="11.2059618998"><ele>1848.46</ele><time>2017-05-28T13:16:38Z</time></trkpt><trkpt lat="47.5593474135" lon="11.2057186570"><ele>1847.60</ele><time>2017-05-28T13:18:56Z</time></trkpt><trkpt lat="47.5594734773" lon="11.2058051582"><ele>1838.09</ele><time>2017-05-28T13:20:58Z</time></trkpt><trkpt lat="47.5595065020" lon="11.2056096084"><ele>1827.74</ele><time>2017-05-28T13:25:49Z</time></trkpt><trkpt lat="47.5595922489" lon="11.2056074291"><ele>1819.67</ele><time>2017-05-28T13:28:44Z</time></trkpt><trkpt lat="47.5598328933" lon="11.2055590656"><ele>1805.47</ele><time>2017-05-28T13:31:06Z</time></trkpt><trkpt lat="47.5599856116" lon="11.2053610850"><ele>1786.74</ele><time>2017-05-28T13:33:11Z</time></trkpt><trkpt lat="47.5601239130" lon="11.2050621025"><ele>1769.43</ele><time>2017-05-28T13:34:19Z</time></trkpt><trkpt lat="47.5601793174" lon="11.2048534770"><ele>1755.31</ele><time>2017-05-28T13:37:13Z</time></trkpt><trkpt lat="47.5603317004" lon="11.2045964040"><ele>1736.70</ele><time>2017-05-28T13:38:32Z</time></trkpt><trkpt lat="47.5605102349" lon="11.2043247465"><ele>1716.17</ele><time>2017-05-28T13:39:36Z</time></trkpt><trkpt lat="47.5606248993" lon="11.2040265184"><ele>1699.32</ele><time>2017-05-28T13:40:46Z</time></trkpt><trkpt lat="47.5606236421" lon="11.2039080821"><ele>1691.72</ele><time>2017-05-28T13:44:13Z</time></trkpt><trkpt lat="47.5607407372" lon="11.2038133666"><ele>1685.57</ele><time>2017-05-28T13:47:25Z</time></trkpt><trkpt lat="47.5607145019" lon="11.2035962753"><ele>1676.52</ele><time>2017-05-28T13:49:10Z</time></trkpt><trkpt lat="47.5607430842" lon="11.2033175770"><ele>1664.17</ele><time>2017-05-28T13:50:21Z</time></trkpt><trkpt lat="47.5607736781" lon="11.2031102926"><ele>1654.74</ele><time>2017-05-28T13:53:48Z</time></trkpt><trkpt lat="47.5608384702" lon="11.2028212845"><ele>1643.43</ele><time>2017-05-28T13:54:41Z</time></trkpt><trkpt lat="47.5609494466" lon="11.2027031835"><ele>1630.25</ele><time>2017-05-28T13:55:45Z</time></trkpt><trkpt lat="47.5611713994" lon="11.2025575899"><ele>1616.81</ele><time>2017-05-28T13:56:45Z</time></trkpt><trkpt lat="47.5613301527" lon="11.2023850065"><ele>1602.36</ele><time>2017-05-28T13:57:31Z</time></trkpt><trkpt lat="47.5614024885" lon="11.2022715993"><ele>1591.32</ele><time>2017-05-28T14:01:01Z</time></trkpt><trkpt lat="47.5615378562" lon="11.2021390814"><ele>1579.67</ele><time>2017-05-28T14:02:04Z</time></trkpt><trkpt lat="47.5617127866" lon="11.2020032946"><ele>1564.47</ele><time>2017-05-28T14:02:54Z</time></trkpt><trkpt lat="47.5618314743" lon="11.2018891331"><ele>1552.06</ele><time>2017-05-28T14:03:48Z</time></trkpt><trkpt lat="47.5619291235" lon="11.2016562000"><ele>1540.83</ele><time>2017-05-28T14:04:48Z</time></trkpt><trkpt lat="47.5621356536" lon="11.2015624065"><ele>1528.86</ele><time>2017-05-28T14:05:30Z</time></trkpt><trkpt lat="47.5623128470" lon="11.2015582994"><ele>1517.83</ele><time>2017-05-28T14:06:12Z</time></trkpt><trkpt lat="47.5623625517" lon="11.2011664454"><ele>1507.14</ele><time>2017-05-28T14:06:51Z</time></trkpt><trkpt lat="47.5625446066" lon="11.2012259569"><ele>1495.50</ele><time>2017-05-28T14:07:56Z</time></trkpt><trkpt lat="47.5627283379" lon="11.2010164093"><ele>1483.96</ele><time>2017-05-28T14:08:41Z</time></trkpt><trkpt lat="47.5629314315" lon="11.2008363660"><ele>1468.92</ele><time>2017-05-28T14:09:26Z</time></trkpt><trkpt lat="47.5631613471" lon="11.2009750865"><ele>1456.74</ele><time>2017-05-28T14:10:13Z</time></trkpt><trkpt lat="47.5631629396" lon="11.2009953707"><ele>1450.71</ele><time>2017-05-28T14:11:47Z</time></trkpt><trkpt lat="47.5633649435" lon="11.2010449916"><ele>1442.67</ele><time>2017-05-28T14:12:36Z</time></trkpt><trkpt lat="47.5634661969" lon="11.2007514574"><ele>1431.86</ele><time>2017-05-28T14:13:25Z</time></trkpt><trkpt lat="47.5635831244" lon="11.2006245553"><ele>1424.89</ele><time>2017-05-28T14:14:24Z</time></trkpt><trkpt lat="47.5637601502" lon="11.2006645370"><ele>1414.25</ele><time>2017-05-28T14:15:43Z</time></trkpt><trkpt lat="47.5639101863" lon="11.2003714219"><ele>1403.05</ele><time>2017-05-28T14:16:34Z</time></trkpt><trkpt lat="47.5640919060" lon="11.2002063822"><ele>1392.82</ele><time>2017-05-28T14:17:10Z</time></trkpt><trkpt lat="47.5641525909" lon="11.2001432665"><ele>1377.36</ele><time>2017-05-28T14:32:50Z</time></trkpt><trkpt lat="47.5643747952" lon="11.1999020353"><ele>1367.14</ele><time>2017-05-28T14:35:41Z</time></trkpt><trkpt lat="47.5645855162" lon="11.1997060664"><ele>1354.74</ele><time>2017-05-28T14:36:35Z</time></trkpt><trkpt lat="47.5648397394" lon="11.1994792521"><ele>1347.75</ele><time>2017-05-28T14:37:17Z</time></trkpt><trkpt lat="47.5649653841" lon="11.1991918366"><ele>1349.64</ele><time>2017-05-28T14:39:21Z</time></trkpt><trkpt lat="47.5651505403" lon="11.1989039183"><ele>1345.28</ele><time>2017-05-28T14:40:02Z</time></trkpt><trkpt lat="47.5653288234" lon="11.1986351106"><ele>1341.77</ele><time>2017-05-28T14:40:45Z</time></trkpt><trkpt lat="47.5655600801" lon="11.1984475236"><ele>1335.21</ele><time>2017-05-28T14:41:22Z</time></trkpt><trkpt lat="47.5657886546" lon="11.1981460266"><ele>1327.38</ele><time>2017-05-28T14:42:01Z</time></trkpt><trkpt lat="47.5659479946" lon="11.1980731878"><ele>1316.00</ele><time>2017-05-28T14:42:52Z</time></trkpt><trkpt lat="47.5661260262" lon="11.1983853299"><ele>1308.77</ele><time>2017-05-28T14:43:30Z</time></trkpt><trkpt lat="47.5662577897" lon="11.1986736674"><ele>1298.05</ele><time>2017-05-28T14:44:13Z</time></trkpt><trkpt lat="47.5664793234" lon="11.1986610945"><ele>1286.12</ele><time>2017-05-28T14:44:59Z</time></trkpt><trkpt lat="47.5667550042" lon="11.1988938600"><ele>1272.92</ele><time>2017-05-28T14:46:04Z</time></trkpt><trkpt lat="47.5668912102" lon="11.1993028130"><ele>1261.85</ele><time>2017-05-28T14:46:53Z</time></trkpt><trkpt lat="47.5670662243" lon="11.1994577944"><ele>1247.83</ele><time>2017-05-28T14:47:53Z</time></trkpt><trkpt lat="47.5673129037" lon="11.1994473170"><ele>1237.38</ele><time>2017-05-28T14:48:42Z</time></trkpt><trkpt lat="47.5675908476" lon="11.1994790006"><ele>1228.12</ele><time>2017-05-28T14:49:17Z</time></trkpt><trkpt lat="47.5676235370" lon="11.1992716324"><ele>1219.40</ele><time>2017-05-28T14:49:58Z</time></trkpt><trkpt lat="47.5675908476" lon="11.1988481786"><ele>1212.66</ele><time>2017-05-28T14:50:29Z</time></trkpt><trkpt lat="47.5677620061" lon="11.1987601686"><ele>1207.96</ele><time>2017-05-28T14:51:03Z</time></trkpt><trkpt lat="47.5680231862" lon="11.1985628586"><ele>1200.30</ele><time>2017-05-28T14:51:41Z</time></trkpt><trkpt lat="47.5682104379" lon="11.1983492039"><ele>1196.05</ele><time>2017-05-28T14:52:14Z</time></trkpt><trkpt lat="47.5684515852" lon="11.1981973238"><ele>1186.59</ele><time>2017-05-28T14:52:53Z</time></trkpt><trkpt lat="47.5687403418" lon="11.1982366350"><ele>1180.36</ele><time>2017-05-28T14:53:32Z</time></trkpt><trkpt lat="47.5690764561" lon="11.1982431728"><ele>1171.08</ele><time>2017-05-28T14:54:09Z</time></trkpt><trkpt lat="47.5693732593" lon="11.1982641276"><ele>1163.53</ele><time>2017-05-28T14:54:48Z</time></trkpt><trkpt lat="47.5697403867" lon="11.1981336214"><ele>1153.72</ele><time>2017-05-28T14:55:26Z</time></trkpt><trkpt lat="47.5699927658" lon="11.1982692406"><ele>1145.82</ele><time>2017-05-28T14:56:04Z</time></trkpt><trkpt lat="47.5702717155" lon="11.1983511318"><ele>1138.50</ele><time>2017-05-28T14:56:45Z</time></trkpt><trkpt lat="47.5704495795" lon="11.1985192727"><ele>1130.49</ele><time>2017-05-28T14:57:38Z</time></trkpt><trkpt lat="47.5707194768" lon="11.1986123957"><ele>1121.81</ele><time>2017-05-28T14:58:16Z</time></trkpt><trkpt lat="47.5708746258" lon="11.1989350989"><ele>1113.82</ele><time>2017-05-28T14:58:52Z</time></trkpt><trkpt lat="47.5711578503" lon="11.1992092710"><ele>1106.63</ele><time>2017-05-28T14:59:26Z</time></trkpt><trkpt lat="47.5713955611" lon="11.1991117056"><ele>1098.69</ele><time>2017-05-28T15:00:03Z</time></trkpt><trkpt lat="47.5716594234" lon="11.1992271245"><ele>1093.21</ele><time>2017-05-28T15:00:34Z</time></trkpt><trkpt lat="47.5719464198" lon="11.1992867198"><ele>1088.85</ele><time>2017-05-28T15:01:05Z</time></trkpt><trkpt lat="47.5722931791" lon="11.1991692893"><ele>1084.36</ele><time>2017-05-28T15:01:36Z</time></trkpt><trkpt lat="47.5725858752" lon="11.1990288086"><ele>1083.92</ele><time>2017-05-28T15:02:13Z</time></trkpt><trkpt lat="47.5728793256" lon="11.1990288924"><ele>1089.37</ele><time>2017-05-28T15:02:55Z</time></trkpt><trkpt lat="47.5731726084" lon="11.1990456562"><ele>1092.52</ele><time>2017-05-28T15:03:40Z</time></trkpt><trkpt lat="47.5734505523" lon="11.1988443229"><ele>1093.08</ele><time>2017-05-28T15:04:13Z</time></trkpt><trkpt lat="47.5735275820" lon="11.1985525489"><ele>1089.13</ele><time>2017-05-28T15:05:55Z</time></trkpt><trkpt lat="47.5736098923" lon="11.1981337052"><ele>1091.92</ele><time>2017-05-28T15:06:29Z</time></trkpt><trkpt lat="47.5736130774" lon="11.1976750474"><ele>1093.52</ele><time>2017-05-28T15:07:06Z</time></trkpt><trkpt lat="47.5735204574" lon="11.1972247716"><ele>1088.22</ele><time>2017-05-28T15:07:51Z</time></trkpt><trkpt lat="47.5737480260" lon="11.1972004641"><ele>1088.04</ele><time>2017-05-28T15:08:29Z</time></trkpt><trkpt lat="47.5740561448" lon="11.1971116159"><ele>1082.45</ele><time>2017-05-28T15:09:11Z</time></trkpt><trkpt lat="47.5743751600" lon="11.1968673673"><ele>1075.91</ele><time>2017-05-28T15:09:48Z</time></trkpt><trkpt lat="47.5744944345" lon="11.1965076998"><ele>1070.65</ele><time>2017-05-28T15:10:17Z</time></trkpt><trkpt lat="47.5745167304" lon="11.1963844858"><ele>1059.50</ele><time>2017-05-28T15:11:06Z</time></trkpt><trkpt lat="47.5747868791" lon="11.1964004114"><ele>1057.51</ele><time>2017-05-28T15:12:01Z</time></trkpt><trkpt lat="47.5750399288" lon="11.1964857392"><ele>1057.55</ele><time>2017-05-28T15:12:55Z</time></trkpt><trkpt lat="47.5753213931" lon="11.1966116354"><ele>1056.49</ele><time>2017-05-28T15:13:31Z</time></trkpt><trkpt lat="47.5755980797" lon="11.1966958735"><ele>1055.70</ele><time>2017-05-28T15:14:09Z</time></trkpt><trkpt lat="47.5758865010" lon="11.1964762677"><ele>1051.00</ele><time>2017-05-28T15:14:58Z</time></trkpt><trkpt lat="47.5761877466" lon="11.1964170076"><ele>1047.22</ele><time>2017-05-28T15:15:52Z</time></trkpt><trkpt lat="47.5764889922" lon="11.1961110681"><ele>1044.87</ele><time>2017-05-28T15:16:26Z</time></trkpt><trkpt lat="47.5767174829" lon="11.1959801428"><ele>1036.34</ele><time>2017-05-28T15:17:09Z</time></trkpt><trkpt lat="47.5770156272" lon="11.1961471941"><ele>1036.49</ele><time>2017-05-28T15:17:46Z</time></trkpt><trkpt lat="47.5773431081" lon="11.1962278280"><ele>1037.68</ele><time>2017-05-28T15:18:19Z</time></trkpt><trkpt lat="47.5776525680" lon="11.1964842305"><ele>1039.20</ele><time>2017-05-28T15:18:47Z</time></trkpt><trkpt lat="47.5779331941" lon="11.1965800356"><ele>1043.68</ele><time>2017-05-28T15:19:20Z</time></trkpt><trkpt lat="47.5781993195" lon="11.1965390481"><ele>1045.58</ele><time>2017-05-28T15:20:10Z</time></trkpt><trkpt lat="47.5783895049" lon="11.1963737570"><ele>1038.19</ele><time>2017-05-28T15:21:08Z</time></trkpt><trkpt lat="47.5785773434" lon="11.1966436543"><ele>1028.50</ele><time>2017-05-28T15:21:48Z</time></trkpt><trkpt lat="47.5787468255" lon="11.1969432235"><ele>1020.28</ele><time>2017-05-28T15:22:22Z</time></trkpt><trkpt lat="47.5789166428" lon="11.1965706479"><ele>1013.38</ele><time>2017-05-28T15:22:56Z</time></trkpt><trkpt lat="47.5790262781" lon="11.1964335199"><ele>1002.25</ele><time>2017-05-28T15:24:04Z</time></trkpt><trkpt lat="47.5790116098" lon="11.1959257443"><ele>989.65</ele><time>2017-05-28T15:24:56Z</time></trkpt><trkpt lat="47.5792182237" lon="11.1956795678"><ele>976.51</ele><time>2017-05-28T15:25:39Z</time></trkpt><trkpt lat="47.5794600416" lon="11.1952945031"><ele>965.73</ele><time>2017-05-28T15:26:21Z</time></trkpt><trkpt lat="47.5797292683" lon="11.1950505897"><ele>956.17</ele><time>2017-05-28T15:26:56Z</time></trkpt><trkpt lat="47.5800020155" lon="11.1949816067"><ele>943.10</ele><time>2017-05-28T15:27:56Z</time></trkpt><trkpt lat="47.5802807137" lon="11.1949402001"><ele>932.47</ele><time>2017-05-28T15:28:48Z</time></trkpt><trkpt lat="47.5805527903" lon="11.1946808640"><ele>922.45</ele><time>2017-05-28T15:29:26Z</time></trkpt><trkpt lat="47.5808963645" lon="11.1947864760"><ele>914.33</ele><time>2017-05-28T15:30:08Z</time></trkpt><trkpt lat="47.5810130406" lon="11.1952846963"><ele>905.64</ele><time>2017-05-28T15:30:43Z</time></trkpt><trkpt lat="47.5810567103" lon="11.1958069727"><ele>897.19</ele><time>2017-05-28T15:31:17Z</time></trkpt><trkpt lat="47.5813646615" lon="11.1959773768"><ele>888.58</ele><time>2017-05-28T15:32:06Z</time></trkpt><trkpt lat="47.5815191399" lon="11.1960549932"><ele>877.27</ele><time>2017-05-28T15:32:45Z</time></trkpt><trkpt lat="47.5818721857" lon="11.1960056238"><ele>868.30</ele><time>2017-05-28T15:33:30Z</time></trkpt><trkpt lat="47.5820800569" lon="11.1956343055"><ele>862.32</ele><time>2017-05-28T15:34:08Z</time></trkpt><trkpt lat="47.5823465176" lon="11.1952864565"><ele>853.21</ele><time>2017-05-28T15:34:46Z</time></trkpt><trkpt lat="47.5825604238" lon="11.1949033197"><ele>842.72</ele><time>2017-05-28T15:35:24Z</time></trkpt><trkpt lat="47.5828070194" lon="11.1946821213"><ele>833.52</ele><time>2017-05-28T15:36:04Z</time></trkpt><trkpt lat="47.5826726574" lon="11.1944813747"><ele>832.50</ele><time>2017-05-28T15:36:54Z</time></trkpt><trkpt lat="47.5826086197" lon="11.1938616168"><ele>823.01</ele><time>2017-05-28T15:37:40Z</time></trkpt><trkpt lat="47.5825682189" lon="11.1932722013"><ele>816.28</ele><time>2017-05-28T15:38:14Z</time></trkpt><trkpt lat="47.5827606674" lon="11.1931900587"><ele>806.59</ele><time>2017-05-28T15:38:51Z</time></trkpt><trkpt lat="47.5829690415" lon="11.1928526033"><ele>797.35</ele><time>2017-05-28T15:39:26Z</time></trkpt><trkpt lat="47.5831034873" lon="11.1924340110"><ele>789.56</ele><time>2017-05-28T15:39:55Z</time></trkpt><trkpt lat="47.5831838697" lon="11.1920420732"><ele>783.44</ele><time>2017-05-28T15:40:22Z</time></trkpt><trkpt lat="47.5833826046" lon="11.1915511452"><ele>775.53</ele><time>2017-05-28T15:40:59Z</time></trkpt><trkpt lat="47.5835090876" lon="11.1911852751"><ele>771.19</ele><time>2017-05-28T15:42:07Z</time></trkpt><trkpt lat="47.5836906396" lon="11.1907698680"><ele>763.75</ele><time>2017-05-28T15:42:49Z</time></trkpt><trkpt lat="47.5838143565" lon="11.1902830470"><ele>755.29</ele><time>2017-05-28T15:43:26Z</time></trkpt><trkpt lat="47.5840152707" lon="11.1898701545"><ele>746.55</ele><time>2017-05-28T15:44:00Z</time></trkpt><trkpt lat="47.5842877664" lon="11.1896062084"><ele>739.97</ele><time>2017-05-28T15:44:40Z</time></trkpt><trkpt lat="47.5845885091" lon="11.1893019453"><ele>734.96</ele><time>2017-05-28T15:45:17Z</time></trkpt><trkpt lat="47.5847915187" lon="11.1889243405"><ele>731.88</ele><time>2017-05-28T15:45:54Z</time></trkpt><trkpt lat="47.5850377791" lon="11.1887991149"><ele>728.82</ele><time>2017-05-28T15:46:21Z</time></trkpt><trkpt lat="47.5853954349" lon="11.1888913158"><ele>726.15</ele><time>2017-05-28T15:46:49Z</time></trkpt><trkpt lat="47.5857297890" lon="11.1892969161"><ele>725.44</ele><time>2017-05-28T15:47:20Z</time></trkpt><trkpt lat="47.5860413443" lon="11.1894301884"><ele>724.64</ele><time>2017-05-28T15:47:49Z</time></trkpt><trkpt lat="47.5863124151" lon="11.1895881034"><ele>723.05</ele><time>2017-05-28T15:48:30Z</time></trkpt><trkpt lat="47.5865642913" lon="11.1898344476"><ele>722.36</ele><time>2017-05-28T15:48:57Z</time></trkpt><trkpt lat="47.5868295785" lon="11.1899522971"><ele>720.67</ele><time>2017-05-28T15:49:43Z</time></trkpt><trkpt lat="47.5870527048" lon="11.1901921034"><ele>719.40</ele><time>2017-05-28T15:50:10Z</time></trkpt><trkpt lat="47.5873029884" lon="11.1904654372"><ele>718.69</ele><time>2017-05-28T15:50:43Z</time></trkpt><trkpt lat="47.5875718798" lon="11.1906601489"><ele>717.95</ele><time>2017-05-28T15:51:09Z</time></trkpt><trkpt lat="47.5878345687" lon="11.1908563692"><ele>715.83</ele><time>2017-05-28T15:52:27Z</time></trkpt><trkpt lat="47.5881027896" lon="11.1910327245"><ele>714.44</ele><time>2017-05-28T15:53:23Z</time></trkpt><trkpt lat="47.5883531570" lon="11.1911255959"><ele>712.17</ele><time>2017-05-28T15:53:57Z</time></trkpt><trkpt lat="47.5881591998" lon="11.1913408432"><ele>711.41</ele><time>2017-05-28T15:55:35Z</time></trkpt><trkpt lat="47.5879330561" lon="11.1916016880"><ele>712.87</ele><time>2017-05-28T15:56:11Z</time></trkpt><trkpt lat="47.5876920763" lon="11.1917943042"><ele>714.38</ele><time>2017-05-28T15:56:43Z</time></trkpt><trkpt lat="47.5874345843" lon="11.1919759400"><ele>716.13</ele><time>2017-05-28T15:57:18Z</time></trkpt><trkpt lat="47.5874392781" lon="11.1921588331"><ele>713.66</ele><time>2017-05-28T15:57:53Z</time></trkpt><trkpt lat="47.5877027214" lon="11.1924123857"><ele>707.19</ele><time>2017-05-28T15:58:25Z</time></trkpt><trkpt lat="47.5879633147" lon="11.1926257890"><ele>705.71</ele><time>2017-05-28T15:59:00Z</time></trkpt><trkpt lat="47.5880287774" lon="11.1930507515"><ele>708.72</ele><time>2017-05-28T15:59:32Z</time></trkpt><trkpt lat="47.5881559309" lon="11.1934631411"><ele>706.97</ele><time>2017-05-28T15:59:59Z</time></trkpt><trkpt lat="47.5884027779" lon="11.1936212238"><ele>706.04</ele><time>2017-05-28T16:00:42Z</time></trkpt><trkpt lat="47.5886061229" lon="11.1935104989"><ele>703.75</ele><time>2017-05-28T16:01:10Z</time></trkpt><trkpt lat="47.5888641179" lon="11.1934544239"><ele>701.75</ele><time>2017-05-28T16:01:37Z</time></trkpt><trkpt lat="47.5891768467" lon="11.1934182141"><ele>699.81</ele><time>2017-05-28T16:02:09Z</time></trkpt><trkpt lat="47.5894953590" lon="11.1932747159"><ele>697.72</ele><time>2017-05-28T16:02:43Z</time></trkpt><trkpt lat="47.5897787511" lon="11.1930953432"><ele>695.65</ele><time>2017-05-28T16:03:11Z</time></trkpt><trkpt lat="47.5899736304" lon="11.1930204090"><ele>689.85</ele><time>2017-05-28T16:03:35Z</time></trkpt></trkseg></trk></gpx>